Theodore, AL (36582)

4:08 AM CST on January 28, 2015 (GMT -0600)
Evonik Industries | Change Station
CLOSE
Current Station
Personal Weather Station
Location: Theodore, AL
Elevation: 25 ft
Nearby Weather Stations

Elev 25 ft 30.52 °N, 88.13 °W | Updated 1 second ago

Clear
Clear
43.4 °F
Feels Like 41 °F
N
4.6
Wind Variable Wind from North
Gusts 6.0 mph

Today
High -- | Low -- °F
--% Chance of Precip.
Yesterday
High -- | Low -- °F
Precip. -- in
6:46 AM 5:25 PM
Waxing Gibbous, 63% visible
Pressure 30.20 in
Visibility 10.0 miles
Clouds Clear
Windchill 41 °F
Dew Point 34 °F
Humidity 69%
Rainfall 0.00 in
Snow Depth Not available.
UV 0 out of 12
Pollen 5.90 out of 12
Air Quality Not available.
Flu Activity Not available.
SPECI KBFM 280922Z 34006KT 10SM CLR 06/02 A3020 RMK AO2 T00560017

More Conditions Fewer Conditions

Pressure 30.20 in
Visibility 10.0 miles
Clouds Clear
Windchill 41 °F
Dew Point 34 °F
Humidity 69%
Rainfall 0.00 in
Snow Depth Not available.
UV 0 out of 12
Pollen 5.90 out of 12
Air Quality Not available.
Flu Activity Not available.
SPECI KBFM 280922Z 34006KT 10SM CLR 06/02 A3020 RMK AO2 T00560017

More Conditions Fewer Conditions

10-Day Weather Forecast

Almanac

Astronomy

Jan. 28, 2015 Rise Set
Actual Time
Civil Twilight
Nautical Twilight
Astronomical Twilight
Moon
Length of Visible Light
Length of Day
Tomorrow will be .
, % of the Moon is Illuminated

Today's Extremes

State Highs State Lows

Community

WunderPhotos

Upload Photos

1,791,121 photos uploaded!

WunderBlogs® & News

Nearby

Air Quality

  Air Quality AQ Index Pollutant
Not available.

Snow Depth

Station Depth Elevation

Earthquake Activity

City Distance Mag. Time & Date
Minimum magnitude displayed is 2.5.

Coastal Water Temperatures

Place Temperature

Nearby Weather Stations